Time;durP1;ratioP1;P1;durP2;ratioP2;P2;SDS_P1;SDS_P2;PMS_P1;PMS_P2;Temp;Humidity;BMP_temperature;BMP_pressure;BME280_temperature;BME280_humidity;BME280_pressure;Samples;Min_cycle;Max_cycle;Signal;HPM_P1;HPM_P2
2022/07/23 00:01:19;;;;;;;;;;;;;;;17.84;61.57;100704.48;1719791;82;20209;-72
2022/07/23 00:03:45;;;;;;;;;;;;;;;17.83;61.66;100690.19;1732874;82;20163;-72
2022/07/23 00:06:11;;;;;;;;;;;;;;;17.84;61.76;100695.87;1721785;82;20177;-72
2022/07/23 00:08:37;;;;;;;;;;;;;;;17.83;61.83;100693.40;1738795;82;21813;-72
2022/07/23 00:11:02;;;;;;;;;;;;;;;17.81;61.92;100689.55;1735211;81;20229;-72
2022/07/23 00:13:28;;;;;;;;;;;;;;;17.76;61.98;100688.02;1740344;81;20228;-72
2022/07/23 00:15:55;;;;;;;;;;;;;;;17.74;62.11;100691.94;1738849;81;20224;-72
2022/07/23 00:18:20;;;;;;;;;;;;;;;17.73;62.19;100691.11;1741287;81;20187;-72
2022/07/23 00:20:46;;;;;;;;;;;;;;;17.69;62.28;100689.89;1740291;82;21777;-72
2022/07/23 00:23:12;;;;;;;;;;;;;;;17.66;62.42;100678.69;1740811;82;20181;-72
2022/07/23 00:25:38;;;;;;;;;;;;;;;17.63;62.52;100682.61;1741972;82;20201;-72
2022/07/23 00:28:04;;;;;;;;;;;;;;;17.60;62.59;100682.20;1741401;82;20205;-72
2022/07/23 00:30:30;;;;;;;;;;;;;;;17.54;62.73;100683.01;1737744;81;20241;-72
2022/07/23 00:32:58;;;;;;;;;;;;;;;17.48;62.85;100688.22;1728330;82;21036;-72
2022/07/23 00:35:26;;;;;;;;;;;;;;;17.47;62.97;100691.94;1736810;81;20470;-72
2022/07/23 00:37:52;;;;;;;;;;;;;;;17.49;63.06;100690.36;1740012;81;20189;-72
2022/07/23 00:40:17;;;;;;;;;;;;;;;17.48;63.15;100694.95;1731400;82;20219;-72
2022/07/23 00:42:43;;;;;;;;;;;;;;;17.46;63.21;100691.62;1732965;82;20182;-72
2022/07/23 00:45:09;;;;;;;;;;;;;;;17.39;63.24;100686.74;1738767;82;21201;-72
2022/07/23 00:47:35;;;;;;;;;;;;;;;17.31;63.39;100684.24;1717963;82;20183;-72
2022/07/23 00:50:02;;;;;;;;;;;;;;;17.32;63.52;100688.61;1735167;82;20181;-72
2022/07/23 00:52:28;;;;;;;;;;;;;;;17.32;63.65;100687.26;1721496;82;20807;-72
2022/07/23 00:54:54;;;;;;;;;;;;;;;17.35;63.75;100685.49;1741536;82;20229;-72
2022/07/23 00:57:20;;;;;;;;;;;;;;;17.32;63.81;100680.52;1739341;82;21083;-72
2022/07/23 00:59:46;;;;;;;;;;;;;;;17.22;63.85;100680.61;1739584;82;20178;-72
2022/07/23 01:02:11;;;;;;;;;;;;;;;17.17;64.00;100682.57;1739403;82;20253;-72
2022/07/23 01:04:37;;;;;;;;;;;;;;;17.18;64.11;100681.55;1738308;81;20181;-72
2022/07/23 01:07:03;;;;;;;;;;;;;;;17.17;64.23;100681.22;1729412;81;20201;-72
2022/07/23 01:09:29;;;;;;;;;;;;;;;17.17;64.30;100683.92;1738636;82;21166;-72
2022/07/23 01:11:55;;;;;;;;;;;;;;;17.17;64.35;100671.79;1732768;82;20190;-72
2022/07/23 01:14:21;;;;;;;;;;;;;;;17.17;64.42;100669.64;1735527;82;20154;-71
2022/07/23 01:16:48;;;;;;;;;;;;;;;17.11;64.49;100664.53;1734047;82;20702;-72
2022/07/23 01:19:14;;;;;;;;;;;;;;;17.09;64.59;100674.70;1722553;82;20168;-72
2022/07/23 01:21:46;;;;;;;;;;;;;;;17.12;64.64;100676.98;1734578;82;21704;-72
2022/07/23 01:24:12;;;;;;;;;;;;;;;17.12;64.71;100670.25;1736804;82;20467;-72
2022/07/23 01:26:38;;;;;;;;;;;;;;;17.12;64.78;100672.11;1738578;82;20165;-71
2022/07/23 01:29:04;;;;;;;;;;;;;;;17.11;64.83;100669.92;1739727;82;20140;-72
2022/07/23 01:31:30;;;;;;;;;;;;;;;17.06;64.87;100667.03;1739383;82;20257;-71
2022/07/23 01:33:56;;;;;;;;;;;;;;;17.00;64.95;100667.83;1735112;82;21081;-72
2022/07/23 01:36:22;;;;;;;;;;;;;;;16.97;65.06;100675.82;1737791;81;20369;-72
2022/07/23 01:38:48;;;;;;;;;;;;;;;16.97;65.14;100670.94;1736880;82;20192;-72
2022/07/23 01:41:13;;;;;;;;;;;;;;;16.96;65.23;100666.06;1726304;82;20185;-72
2022/07/23 01:43:39;;;;;;;;;;;;;;;16.95;65.31;100671.16;1711623;81;20199;-72
2022/07/23 01:46:05;;;;;;;;;;;;;;;16.94;65.39;100664.11;1726977;82;21908;-72
2022/07/23 01:48:31;;;;;;;;;;;;;;;16.92;65.46;100660.77;1726267;82;20193;-72
2022/07/23 01:50:56;;;;;;;;;;;;;;;16.87;65.54;100654.34;1726523;82;20189;-72
2022/07/23 01:53:22;;;;;;;;;;;;;;;16.86;65.62;100659.41;1728401;82;20149;-72
2022/07/23 01:55:48;;;;;;;;;;;;;;;16.89;65.71;100659.83;1727207;82;20165;-72
2022/07/23 01:58:14;;;;;;;;;;;;;;;16.92;65.74;100662.12;1721367;81;21106;-71
2022/07/23 02:00:40;;;;;;;;;;;;;;;16.95;65.78;100663.59;1727112;81;20169;-72
2022/07/23 02:03:05;;;;;;;;;;;;;;;16.98;65.84;100661.83;1727225;82;20733;-72
2022/07/23 02:05:31;;;;;;;;;;;;;;;17.01;65.87;100668.16;1726923;82;20224;-72
2022/07/23 02:07:58;;;;;;;;;;;;;;;16.96;65.88;100655.80;1726146;81;20161;-72
2022/07/23 02:10:24;;;;;;;;;;;;;;;16.89;65.94;100642.33;1711805;82;21094;-72
2022/07/23 02:12:50;;;;;;;;;;;;;;;16.83;66.03;100640.97;1724120;82;20174;-72
2022/07/23 02:15:16;;;;;;;;;;;;;;;16.80;66.10;100645.42;1718552;82;20243;-72
2022/07/23 02:17:42;;;;;;;;;;;;;;;16.80;66.18;100645.42;1714909;81;20169;-72
2022/07/23 02:20:10;;;;;;;;;;;;;;;16.82;66.25;100644.69;1712927;81;20169;-72
2022/07/23 02:22:36;;;;;;;;;;;;;;;16.81;66.30;100639.02;1725848;81;22032;-72
2022/07/23 02:25:03;;;;;;;;;;;;;;;16.79;66.36;100631.63;1723274;83;20173;-72
2022/07/23 02:27:29;;;;;;;;;;;;;;;16.75;66.43;100631.73;1726692;83;20401;-72
2022/07/23 02:29:55;;;;;;;;;;;;;;;16.69;66.51;100623.13;1720454;81;20192;-72
2022/07/23 02:32:21;;;;;;;;;;;;;;;16.61;66.58;100621.95;1725475;81;20885;-72
2022/07/23 02:34:47;;;;;;;;;;;;;;;16.55;66.66;100621.40;1726198;81;21716;-72
2022/07/23 02:37:13;;;;;;;;;;;;;;;16.53;66.78;100623.48;1723841;82;20461;-72
2022/07/23 02:39:39;;;;;;;;;;;;;;;16.54;66.92;100626.49;1731099;80;20209;-72
2022/07/23 02:42:05;;;;;;;;;;;;;;;16.55;66.97;100630.83;1746041;80;20177;-72
2022/07/23 02:44:31;;;;;;;;;;;;;;;16.56;67.03;100633.87;1743645;80;20185;-72
2022/07/23 02:46:57;;;;;;;;;;;;;;;16.57;67.09;100627.46;1748936;80;21078;-72
2022/07/23 02:49:23;;;;;;;;;;;;;;;16.57;67.16;100636.89;1745025;82;20204;-72
2022/07/23 02:51:48;;;;;;;;;;;;;;;16.61;67.21;100635.42;1739316;80;20221;-72
2022/07/23 02:54:14;;;;;;;;;;;;;;;16.63;67.27;100636.06;1747071;80;20237;-72
2022/07/23 02:56:40;;;;;;;;;;;;;;;16.63;67.31;100638.76;1750733;82;20473;-72
2022/07/23 02:59:06;;;;;;;;;;;;;;;16.68;67.37;100634.92;1749256;80;21085;-72
2022/07/23 03:01:32;;;;;;;;;;;;;;;16.70;67.40;100642.30;1734555;80;20201;-72
2022/07/23 03:03:58;;;;;;;;;;;;;;;16.69;67.46;100641.46;1746969;80;20199;-72
2022/07/23 03:06:24;;;;;;;;;;;;;;;16.72;67.51;100644.25;1728130;81;20645;-72
2022/07/23 03:08:49;;;;;;;;;;;;;;;16.74;67.52;100643.55;1751660;81;20201;-72
2022/07/23 03:11:15;;;;;;;;;;;;;;;16.71;67.52;100638.58;1748272;80;23404;-72
2022/07/23 03:13:41;;;;;;;;;;;;;;;16.65;67.58;100635.33;1736197;82;20267;-72
2022/07/23 03:16:07;;;;;;;;;;;;;;;16.62;67.64;100629.84;1736258;82;20193;-72
2022/07/23 03:18:33;;;;;;;;;;;;;;;16.63;67.75;100626.64;1733264;80;20182;-72
2022/07/23 03:20:59;;;;;;;;;;;;;;;16.67;67.84;100625.20;1745302;80;20189;-72
2022/07/23 03:23:25;;;;;;;;;;;;;;;16.61;67.87;100620.61;1748730;80;22598;-72
2022/07/23 03:25:51;;;;;;;;;;;;;;;16.64;67.97;100616.19;1748248;82;20224;-72
2022/07/23 03:28:17;;;;;;;;;;;;;;;16.68;68.02;100622.80;1745578;81;20263;-72
2022/07/23 03:30:46;;;;;;;;;;;;;;;16.72;68.05;100620.02;1738562;81;20165;-72
2022/07/23 03:33:11;;;;;;;;;;;;;;;16.75;68.08;100618.26;1743361;80;20434;-72
2022/07/23 03:35:37;;;;;;;;;;;;;;;16.76;68.09;100615.38;1747839;82;21126;-72
2022/07/23 03:38:03;;;;;;;;;;;;;;;16.83;68.16;100623.46;1746787;82;20191;-72
2022/07/23 03:40:29;;;;;;;;;;;;;;;16.92;68.18;100624.94;1742908;82;20193;-72
2022/07/23 03:42:54;;;;;;;;;;;;;;;16.95;68.19;100621.83;1739106;82;20264;-72
2022/07/23 03:45:20;;;;;;;;;;;;;;;16.99;68.24;100621.19;1730706;82;20170;-72
2022/07/23 03:47:46;;;;;;;;;;;;;;;17.10;68.22;100625.14;1727382;82;21330;-72
2022/07/23 03:50:12;;;;;;;;;;;;;;;17.18;68.19;100619.55;1731895;82;20193;-72
2022/07/23 03:52:38;;;;;;;;;;;;;;;17.21;68.19;100624.52;1738758;82;20225;-72
2022/07/23 03:55:05;;;;;;;;;;;;;;;17.25;68.20;100633.86;1738847;82;20185;-72
2022/07/23 03:57:31;;;;;;;;;;;;;;;17.28;68.20;100638.83;1732308;82;20162;-72
2022/07/23 03:59:57;;;;;;;;;;;;;;;17.39;68.24;100637.37;1735823;82;21105;-72
2022/07/23 04:02:22;;;;;;;;;;;;;;;17.61;68.26;100636.66;1741687;82;20197;-72
2022/07/23 04:04:48;;;;;;;;;;;;;;;17.73;68.11;100640.39;1739493;82;20268;-72
2022/07/23 04:07:14;;;;;;;;;;;;;;;18.11;68.23;100637.28;1741740;82;20203;-72
2022/07/23 04:09:40;;;;;;;;;;;;;;;19.02;68.33;100637.86;1741813;82;20264;-72
2022/07/23 04:12:06;;;;;;;;;;;;;;;19.86;67.88;100627.86;1740042;81;21125;-72
2022/07/23 04:14:33;;;;;;;;;;;;;;;20.51;67.39;100626.80;1738707;81;20440;-72
2022/07/23 04:16:59;;;;;;;;;;;;;;;21.19;66.98;100623.18;1731935;82;20208;-72
2022/07/23 04:19:25;;;;;;;;;;;;;;;21.85;66.53;100625.02;1732681;81;20731;-73
2022/07/23 04:21:51;;;;;;;;;;;;;;;22.32;65.98;100623.06;1741519;82;20473;-73
2022/07/23 04:24:17;;;;;;;;;;;;;;;22.82;65.33;100616.97;1739854;82;21195;-73
2022/07/23 04:26:43;;;;;;;;;;;;;;;23.27;64.78;100615.02;1741037;82;20201;-73
2022/07/23 04:29:09;;;;;;;;;;;;;;;23.75;64.07;100610.88;1727638;82;20186;-73
2022/07/23 04:31:35;;;;;;;;;;;;;;;23.99;63.32;100604.13;1727078;82;20700;-72
2022/07/23 04:34:01;;;;;;;;;;;;;;;24.18;62.84;100600.02;1733153;82;20233;-73
2022/07/23 04:36:27;;;;;;;;;;;;;;;24.36;62.19;100602.42;1739540;82;21621;-73
2022/07/23 04:38:54;;;;;;;;;;;;;;;24.58;61.70;100593.38;1741461;82;20185;-72
2022/07/23 04:41:20;;;;;;;;;;;;;;;24.63;61.05;100592.08;1739097;82;20257;-72
2022/07/23 04:43:46;;;;;;;;;;;;;;;24.65;60.28;100589.91;1739203;82;20491;-72
2022/07/23 04:46:11;;;;;;;;;;;;;;;24.26;59.88;100594.13;1740799;82;20190;-72
2022/07/23 04:48:37;;;;;;;;;;;;;;;23.96;59.67;100590.98;1733705;81;22083;-72
2022/07/23 04:51:03;;;;;;;;;;;;;;;23.83;59.64;100593.55;1751499;81;20185;-72
2022/07/23 04:53:29;;;;;;;;;;;;;;;23.80;59.68;100585.06;1747375;80;20860;-73
2022/07/23 04:55:55;;;;;;;;;;;;;;;23.88;59.66;100566.92;1748474;81;20538;-73
2022/07/23 04:58:20;;;;;;;;;;;;;;;23.92;59.57;100563.98;1748338;81;20173;-72
2022/07/23 05:00:46;;;;;;;;;;;;;;;23.82;59.42;100559.73;1742996;82;21681;-72
2022/07/23 05:03:12;;;;;;;;;;;;;;;23.58;59.27;100550.98;1727408;80;20209;-73
2022/07/23 05:05:38;;;;;;;;;;;;;;;23.45;59.35;100545.08;1746493;82;20197;-73
2022/07/23 05:08:04;;;;;;;;;;;;;;;23.43;59.45;100533.62;1743117;80;21106;-73
2022/07/23 05:10:30;;;;;;;;;;;;;;;23.71;59.44;100538.92;1743936;82;20245;-73
2022/07/23 05:12:56;;;;;;;;;;;;;;;23.88;59.26;100539.14;1745543;81;21766;-73
2022/07/23 05:15:22;;;;;;;;;;;;;;;23.90;59.04;100530.70;1739587;82;20765;-73
2022/07/23 05:17:47;;;;;;;;;;;;;;;24.09;59.02;100526.58;1740689;82;20281;-74
2022/07/23 05:20:13;;;;;;;;;;;;;;;24.31;58.83;100534.20;1739357;82;20654;-73
2022/07/23 05:22:39;;;;;;;;;;;;;;;24.45;58.59;100531.08;1748173;80;21045;-74
2022/07/23 05:25:06;;;;;;;;;;;;;;;24.40;58.51;100523.66;1741067;80;21811;-74
2022/07/23 05:27:31;;;;;;;;;;;;;;;24.38;58.37;100528.00;1750100;82;20185;-74
2022/07/23 05:29:57;;;;;;;;;;;;;;;24.44;58.26;100523.97;1715240;83;20793;-75
2022/07/23 05:32:23;;;;;;;;;;;;;;;24.69;58.09;100515.49;1711059;82;20677;-74
2022/07/23 05:34:49;;;;;;;;;;;;;;;24.92;57.80;100507.51;1713369;83;20208;-75
2022/07/23 05:37:16;;;;;;;;;;;;;;;25.17;57.64;100504.95;1718848;83;21696;-75
2022/07/23 05:39:41;;;;;;;;;;;;;;;25.21;57.44;100496.53;1723194;82;20166;-74
2022/07/23 05:42:07;;;;;;;;;;;;;;;25.44;57.27;100505.41;1701883;82;20231;-74
2022/07/23 05:44:33;;;;;;;;;;;;;;;25.57;56.98;100511.78;1736407;82;20729;-74
2022/07/23 05:46:59;;;;;;;;;;;;;;;25.85;56.79;100505.89;1728431;82;20169;-74
2022/07/23 05:49:25;;;;;;;;;;;;;;;26.10;56.34;100500.51;1721239;82;21785;-74
2022/07/23 05:51:51;;;;;;;;;;;;;;;26.30;56.16;100502.48;1738233;82;20229;-74
2022/07/23 05:54:16;;;;;;;;;;;;;;;26.53;55.81;100497.05;1741513;82;20177;-74
2022/07/23 05:56:42;;;;;;;;;;;;;;;26.59;55.41;100502.80;1730351;82;20688;-74
2022/07/23 05:59:08;;;;;;;;;;;;;;;26.77;55.22;100492.68;1726106;82;20183;-75
2022/07/23 06:01:34;;;;;;;;;;;;;;;26.95;54.87;100479.80;1728589;81;21911;-74
2022/07/23 06:04:00;;;;;;;;;;;;;;;27.04;54.51;100483.64;1720942;82;21023;-75
2022/07/23 06:06:25;;;;;;;;;;;;;;;27.12;54.38;100482.27;1727020;81;20276;-74
2022/07/23 06:08:51;;;;;;;;;;;;;;;27.30;54.01;100482.47;1730455;81;20602;-80
2022/07/23 06:11:17;;;;;;;;;;;;;;;27.51;53.62;100487.95;1724766;81;21174;-80
2022/07/23 06:13:43;;;;;;;;;;;;;;;27.52;53.21;100493.12;1731119;81;21361;-80
2022/07/23 06:16:09;;;;;;;;;;;;;;;27.67;53.03;100489.52;1715417;82;20194;-80
2022/07/23 06:18:35;;;;;;;;;;;;;;;27.73;52.49;100478.79;1725891;82;20118;-80
2022/07/23 06:21:00;;;;;;;;;;;;;;;27.59;51.93;100492.83;1709738;84;20714;-80
2022/07/23 06:23:26;;;;;;;;;;;;;;;27.35;51.52;100488.50;1722545;82;20194;-80
2022/07/23 06:25:52;;;;;;;;;;;;;;;27.11;51.13;100486.92;1739458;81;21802;-80
2022/07/23 06:28:18;;;;;;;;;;;;;;;27.07;50.96;100484.45;1739340;81;20815;-80
2022/07/23 06:30:43;;;;;;;;;;;;;;;27.09;50.69;100488.30;1731157;81;20257;-81
2022/07/23 06:33:11;;;;;;;;;;;;;;;27.03;50.49;100482.00;1733097;82;20691;-80
2022/07/23 06:35:37;;;;;;;;;;;;;;;27.24;50.49;100486.88;1734261;82;20142;-80
2022/07/23 06:38:03;;;;;;;;;;;;;;;27.62;50.33;100465.69;1734093;81;21809;-81
2022/07/23 06:40:28;;;;;;;;;;;;;;;27.68;49.96;100459.09;1733906;81;20809;-80
2022/07/23 06:42:54;;;;;;;;;;;;;;;27.14;49.68;100464.45;1729824;81;20600;-80
2022/07/23 06:45:20;;;;;;;;;;;;;;;26.93;49.81;100454.64;1694334;84;20647;-80
2022/07/23 06:47:46;;;;;;;;;;;;;;;26.94;49.74;100458.20;1728895;82;20189;-80
2022/07/23 06:50:12;;;;;;;;;;;;;;;27.25;49.82;100466.07;1712187;82;21835;-80
2022/07/23 06:52:37;;;;;;;;;;;;;;;27.51;49.51;100475.62;1731090;81;20735;-80
2022/07/23 06:55:04;;;;;;;;;;;;;;;27.49;49.30;100477.25;1739336;81;20726;-80
2022/07/23 06:57:30;;;;;;;;;;;;;;;27.61;49.12;100479.68;1739236;82;21286;-80
2022/07/23 06:59:56;;;;;;;;;;;;;;;27.74;49.13;100476.33;1739499;82;20264;-80
2022/07/23 07:02:21;;;;;;;;;;;;;;;27.88;49.01;100489.69;1739215;82;22855;-80
2022/07/23 07:04:47;;;;;;;;;;;;;;;27.97;48.82;100482.50;1739296;81;20273;-80
2022/07/23 07:07:13;;;;;;;;;;;;;;;27.67;48.49;100474.44;1739547;82;20213;-80
2022/07/23 07:09:39;;;;;;;;;;;;;;;27.74;48.57;100479.06;1739499;82;20725;-80
2022/07/23 07:12:05;;;;;;;;;;;;;;;27.76;48.26;100479.62;1739317;82;20163;-80
2022/07/23 07:14:31;;;;;;;;;;;;;;;27.62;48.25;100485.44;1739415;82;21776;-80
2022/07/23 07:16:57;;;;;;;;;;;;;;;27.57;48.17;100489.02;1738770;82;20294;-80
2022/07/23 07:19:23;;;;;;;;;;;;;;;27.43;48.07;100492.05;1739398;81;20252;-80
2022/07/23 07:21:48;;;;;;;;;;;;;;;27.15;48.03;100493.48;1739491;81;21105;-80
2022/07/23 07:24:14;;;;;;;;;;;;;;;26.97;48.09;100507.74;1739177;82;20182;-80
2022/07/23 07:26:40;;;;;;;;;;;;;;;26.80;48.20;100520.86;1739463;82;21799;-80
2022/07/23 07:29:06;;;;;;;;;;;;;;;26.71;48.26;100527.95;1739253;82;20719;-80
2022/07/23 07:31:32;;;;;;;;;;;;;;;26.52;48.28;100551.48;1739423;82;20201;-80
2022/07/23 07:33:58;;;;;;;;;;;;;;;26.16;48.32;100560.94;1739243;82;20582;-80
2022/07/23 07:36:24;;;;;;;;;;;;;;;25.79;48.49;100576.66;1738961;82;20194;-80
2022/07/23 07:38:50;;;;;;;;;;;;;;;25.44;48.64;100579.14;1739086;81;21862;-79
2022/07/23 07:41:15;;;;;;;;;;;;;;;25.13;48.97;100579.44;1739780;82;20832;-80
2022/07/23 07:43:41;;;;;;;;;;;;;;;24.88;49.35;100559.59;1741447;82;20209;-79
2022/07/23 07:46:09;;;;;;;;;;;;;;;24.77;49.74;100526.47;1741424;82;20680;-80
2022/07/23 07:48:38;;;;;;;;;;;;;;;24.47;50.18;100507.92;1741682;81;20132;-81
2022/07/23 07:51:04;;;;;;;;;;;;;;;24.13;50.79;100516.02;1740401;82;22359;-81
2022/07/23 07:53:30;;;;;;;;;;;;;;;23.91;51.40;100520.09;1741442;82;20757;-80
2022/07/23 07:55:56;;;;;;;;;;;;;;;23.66;52.02;100530.67;1741611;82;20181;-80
2022/07/23 07:58:22;;;;;;;;;;;;;;;23.38;52.71;100535.17;1741594;82;20644;-80
2022/07/23 08:00:48;;;;;;;;;;;;;;;23.17;53.25;100525.06;1741626;82;20245;-80
2022/07/23 08:03:13;;;;;;;;;;;;;;;23.10;53.84;100528.48;1741642;81;21567;-80
2022/07/23 08:05:39;;;;;;;;;;;;;;;23.02;54.57;100530.26;1741703;82;20229;-80
2022/07/23 08:08:05;;;;;;;;;;;;;;;22.89;55.29;100541.48;1741333;82;20118;-79
2022/07/23 08:10:31;;;;;;;;;;;;;;;22.85;55.93;100540.32;1741563;82;20284;-79
2022/07/23 08:12:58;;;;;;;;;;;;;;;22.86;56.41;100544.16;1741624;82;20258;-79
2022/07/23 08:15:24;;;;;;;;;;;;;;;22.92;56.86;100542.34;1741588;81;21321;-80
2022/07/23 08:17:50;;;;;;;;;;;;;;;22.88;57.33;100539.82;1741465;82;20151;-80
2022/07/23 08:20:17;;;;;;;;;;;;;;;22.87;57.84;100542.24;1741583;82;20715;-80
2022/07/23 08:22:57;;;;;;;;;;;;;;;22.89;58.29;100541.48;1741407;82;20348;-80
2022/07/23 08:25:25;;;;;;;;;;;;;;;23.00;58.59;100541.11;1741563;82;20202;-79
2022/07/23 08:27:51;;;;;;;;;;;;;;;23.07;58.81;100542.59;1741564;82;21402;-80
2022/07/23 08:30:17;;;;;;;;;;;;;;;23.07;59.02;100534.97;1741437;82;20174;-79
2022/07/23 08:32:56;;;;;;;;;;;;;;;23.04;59.32;100533.58;1741716;82;20166;-80
2022/07/23 08:35:23;;;;;;;;;;;;;;;22.95;59.65;100533.68;1739276;82;20179;-80
2022/07/23 08:37:49;;;;;;;;;;;;;;;22.94;59.92;100529.86;1741116;82;20414;-79
2022/07/23 08:40:15;;;;;;;;;;;;;;;22.99;60.20;100526.67;1741653;82;21411;-79
2022/07/23 08:42:40;;;;;;;;;;;;;;;23.03;60.35;100520.20;1737787;82;20181;-79
2022/07/23 08:45:08;;;;;;;;;;;;;;;23.07;60.55;100519.47;1736385;82;20185;-79
2022/07/23 08:47:35;;;;;;;;;;;;;;;23.23;60.64;100530.86;1736341;82;20300;-79
2022/07/23 08:50:01;;;;;;;;;;;;;;;23.42;60.71;100540.14;1736020;82;20166;-79
2022/07/23 08:52:27;;;;;;;;;;;;;;;23.52;60.70;100541.64;1736151;82;21599;-79
2022/07/23 08:54:53;;;;;;;;;;;;;;;23.52;60.73;100540.28;1736162;82;20252;-79
2022/07/23 08:57:19;;;;;;;;;;;;;;;23.45;60.84;100547.80;1736184;82;20409;-79
2022/07/23 08:59:44;;;;;;;;;;;;;;;23.45;60.97;100548.63;1736261;82;20698;-79
2022/07/23 09:02:10;;;;;;;;;;;;;;;23.46;61.10;100556.27;1736330;82;20178;-79
2022/07/23 09:04:36;;;;;;;;;;;;;;;23.36;61.21;100567.25;1714629;82;21653;-79
2022/07/23 09:07:02;;;;;;;;;;;;;;;23.18;61.39;100562.09;1735984;82;21482;-79
2022/07/23 09:09:30;;;;;;;;;;;;;;;23.07;61.56;100571.16;1736264;82;20257;-79
2022/07/23 09:12:03;;;;;;;;;;;;;;;22.99;61.76;100571.56;1736159;82;20980;-79
2022/07/23 09:14:40;;;;;;;;;;;;;;;22.89;61.92;100570.88;1736091;82;20167;-79
2022/07/23 09:17:14;;;;;;;;;;;;;;;22.75;62.14;100571.42;1735728;82;20752;-79
2022/07/23 09:19:41;;;;;;;;;;;;;;;22.68;62.40;100573.47;1736222;82;20812;-79
2022/07/23 09:22:23;;;;;;;;;;;;;;;22.62;62.57;100560.31;1736215;82;20462;-79
2022/07/23 09:25:11;;;;;;;;;;;;;;;22.62;62.77;100562.20;1736309;82;20179;-79
2022/07/23 09:27:57;;;;;;;;;;;;;;;22.59;62.89;100559.97;1736599;82;20136;-79
2022/07/23 09:30:25;;;;;;;;;;;;;;;22.59;63.07;100557.25;1736495;82;21297;-79
2022/07/23 09:33:08;;;;;;;;;;;;;;;22.64;63.21;100564.12;1736335;82;20174;-79
2022/07/23 09:35:49;;;;;;;;;;;;;;;22.70;63.37;100559.09;1736390;82;20163;-79
2022/07/23 09:38:15;;;;;;;;;;;;;;;22.60;63.52;100556.16;1736306;82;20151;-79
2022/07/23 09:40:40;;;;;;;;;;;;;;;22.54;63.78;100554.43;1736254;82;20170;-79
2022/07/23 09:43:06;;;;;;;;;;;;;;;22.50;63.89;100550.55;1717100;82;21340;-79
2022/07/23 09:45:32;;;;;;;;;;;;;;;22.46;64.03;100546.66;1739502;82;20186;-79
2022/07/23 09:48:14;;;;;;;;;;;;;;;22.44;64.20;100555.61;1739499;81;20236;-79
2022/07/23 09:50:41;;;;;;;;;;;;;;;22.50;64.39;100553.27;1739409;82;20444;-80
2022/07/23 09:53:07;;;;;;;;;;;;;;;22.61;64.44;100556.46;1739588;82;20462;-79
2022/07/23 09:55:39;;;;;;;;;;;;;;;22.70;64.51;100555.01;1739685;82;21463;-81
2022/07/23 09:58:12;;;;;;;;;;;;;;;22.75;64.54;100565.98;1739581;82;20180;-79
2022/07/23 10:00:39;;;;;;;;;;;;;;;22.71;64.64;100566.19;1739461;82;20186;-79
2022/07/23 10:03:06;;;;;;;;;;;;;;;22.70;64.72;100569.96;1739528;82;20918;-79
2022/07/23 10:05:32;;;;;;;;;;;;;;;22.77;64.88;100561.11;1739418;82;20171;-79
2022/07/23 10:07:58;;;;;;;;;;;;;;;22.96;64.87;100563.08;1739554;82;21765;-79
2022/07/23 10:10:23;;;;;;;;;;;;;;;23.04;64.79;100564.86;1739496;81;20802;-79
2022/07/23 10:15:33;;;;;;;;;;;;;;;22.92;64.75;100566.82;1739653;82;21094;-78
2022/07/23 10:17:59;;;;;;;;;;;;;;;22.83;64.77;100562.87;1739345;82;20245;-78
2022/07/23 10:20:25;;;;;;;;;;;;;;;22.76;64.82;100556.20;1739308;82;21556;-79
2022/07/23 10:22:54;;;;;;;;;;;;;;;22.75;64.90;100561.91;1739415;81;20585;-79
2022/07/23 10:25:24;;;;;;;;;;;;;;;22.75;64.92;100558.66;1737697;82;20155;-78
2022/07/23 10:28:11;;;;;;;;;;;;;;;22.86;64.95;100552.86;1739072;82;20447;-79
2022/07/23 10:31:07;;;;;;;;;;;;;;;23.01;64.93;100558.52;1728434;82;20188;-79
2022/07/23 10:33:58;;;;;;;;;;;;;;;23.16;64.84;100566.94;1709916;84;21396;-78
2022/07/23 10:36:40;;;;;;;;;;;;;;;23.19;64.69;100561.00;1709713;83;20177;-78
2022/07/23 10:39:14;;;;;;;;;;;;;;;23.16;64.57;100558.78;1694472;84;20160;-79
2022/07/23 10:41:40;;;;;;;;;;;;;;;23.09;64.43;100552.68;1709818;84;20345;-78
2022/07/23 10:44:15;;;;;;;;;;;;;;;23.01;64.41;100536.77;1709709;82;20168;-80
2022/07/23 10:49:43;;;;;;;;;;;;;;;22.87;64.41;100543.08;1709962;84;20137;-79
2022/07/23 10:52:20;;;;;;;;;;;;;;;22.97;64.30;100543.80;1709872;84;20180;-79
2022/07/23 10:54:57;;;;;;;;;;;;;;;23.02;64.27;100549.83;1710096;82;21178;-79
2022/07/23 10:57:25;;;;;;;;;;;;;;;23.06;64.20;100543.66;1689645;84;20156;-79
2022/07/23 11:00:11;;;;;;;;;;;;;;;23.00;64.12;100543.30;1709186;83;21677;-79
2022/07/23 11:02:35;;;;;;;;;;;;;;;22.97;64.12;100546.52;1709637;83;20409;-79
2022/07/23 11:05:05;;;;;;;;;;;;;;;23.00;64.08;100548.73;1709603;84;20469;-79
2022/07/23 11:07:31;;;;;;;;;;;;;;;23.12;64.10;100537.22;1709244;82;20507;-79
2022/07/23 11:09:57;;;;;;;;;;;;;;;23.42;63.99;100539.61;1709930;84;20736;-78
2022/07/23 11:12:26;;;;;;;;;;;;;;;23.57;63.76;100543.09;1709846;84;22253;-79
2022/07/23 11:15:07;;;;;;;;;;;;;;;23.59;63.63;100547.73;1709965;82;20681;-78
2022/07/23 11:17:47;;;;;;;;;;;;;;;23.61;63.58;100549.69;1710043;82;20160;-79
2022/07/23 11:20:15;;;;;;;;;;;;;;;23.52;63.44;100549.81;1709889;84;20581;-79
2022/07/23 11:22:49;;;;;;;;;;;;;;;23.53;63.46;100558.27;1710006;82;20152;-79
2022/07/23 11:25:28;;;;;;;;;;;;;;;23.61;63.44;100561.38;1709979;84;22376;-79
2022/07/23 11:27:54;;;;;;;;;;;;;;;23.61;63.30;100570.11;1710014;84;20161;-79
2022/07/23 11:30:29;;;;;;;;;;;;;;;23.74;63.23;100569.73;1709609;82;20428;-79
2022/07/23 11:33:11;;;;;;;;;;;;;;;23.74;63.02;100572.45;1710144;82;21064;-79
2022/07/23 11:35:38;;;;;;;;;;;;;;;;;;1709435;82;20153;-78
2022/07/23 11:38:06;;;;;;;;;;;;;;;23.82;62.90;100578.27;1709987;84;21666;-78
2022/07/23 11:40:32;;;;;;;;;;;;;;;23.82;62.81;100577.45;1709500;84;20137;-78
2022/07/23 11:42:59;;;;;;;;;;;;;;;23.73;62.80;100577.61;1709657;82;20198;-78
2022/07/23 11:45:34;;;;;;;;;;;;;;;23.80;62.82;100585.06;1710018;84;20578;-78
2022/07/23 11:48:00;;;;;;;;;;;;;;;23.83;62.68;100579.93;1690482;84;20153;-78
2022/07/23 11:50:26;;;;;;;;;;;;;;;23.90;62.64;100579.73;1709963;82;22613;-78
2022/07/23 11:52:53;;;;;;;;;;;;;;;24.02;62.59;100575.00;1709849;82;20469;-79
2022/07/23 11:55:19;;;;;;;;;;;;;;;24.18;62.54;100570.57;1709205;82;20469;-78
2022/07/23 11:57:45;;;;;;;;;;;;;;;24.32;62.46;100571.29;1708467;84;20577;-78
2022/07/23 12:00:16;;;;;;;;;;;;;;;24.46;62.27;100562.70;1708325;84;20093;-79
2022/07/23 12:02:44;;;;;;;;;;;;;;;24.46;62.05;100559.44;1708385;82;21804;-79
2022/07/23 12:05:15;;;;;;;;;;;;;;;24.57;61.95;100564.45;1707894;84;20189;-79
2022/07/23 12:07:49;;;;;;;;;;;;;;;24.77;61.85;100569.55;1708151;83;20148;-79
2022/07/23 12:10:19;;;;;;;;;;;;;;;24.81;61.51;100565.23;1707953;84;20583;-79
2022/07/23 12:12:49;;;;;;;;;;;;;;;24.91;61.37;100556.91;1701761;84;20104;-79
2022/07/23 12:15:15;;;;;;;;;;;;;;;25.01;61.25;100550.98;1708302;84;22014;-79
2022/07/23 12:17:43;;;;;;;;;;;;;;;25.16;60.98;100544.25;1708304;84;20258;-79
2022/07/23 12:20:12;;;;;;;;;;;;;;;25.02;60.57;100539.50;1708125;82;20149;-79
2022/07/23 12:22:43;;;;;;;;;;;;;;;24.97;60.40;100545.77;1708339;84;21464;-79
2022/07/23 12:25:12;;;;;;;;;;;;;;;25.15;60.30;100549.45;1708107;83;20149;-78
2022/07/23 12:27:38;;;;;;;;;;;;;;;25.47;60.15;100552.66;1708427;82;21843;-79
2022/07/23 12:30:24;;;;;;;;;;;;;;;25.77;59.79;100561.05;1708182;84;20193;-79
2022/07/23 12:32:52;;;;;;;;;;;;;;;25.71;59.44;100549.82;1708339;84;20157;-79
2022/07/23 12:35:18;;;;;;;;;;;;;;;25.69;59.24;100550.61;1707914;82;20618;-78
2022/07/23 12:37:45;;;;;;;;;;;;;;;25.67;59.09;100548.70;1708314;84;20101;-79
2022/07/23 12:40:26;;;;;;;;;;;;;;;25.67;58.96;100557.73;1707992;82;21846;-79
2022/07/23 12:42:55;;;;;;;;;;;;;;;25.59;58.79;100558.76;1708290;84;20357;-79
2022/07/23 12:45:21;;;;;;;;;;;;;;;25.50;58.71;100560.33;1707095;84;20309;-79